createdAt,value
2019-03-05T00:01:41.041Z,0.70
2019-03-05T00:04:35.465Z,1.10
2019-03-05T00:07:49.838Z,0.80
2019-03-05T00:10:41.285Z,0.90
2019-03-05T00:13:28.703Z,0.77
2019-03-05T00:16:22.379Z,0.60
2019-03-05T00:19:10.595Z,0.70
2019-03-05T00:22:11.268Z,1.07
2019-03-05T00:25:07.268Z,0.63
2019-03-05T00:28:04.833Z,0.73
2019-03-05T00:30:53.505Z,0.70
2019-03-05T00:34:12.064Z,0.80
2019-03-05T00:37:05.379Z,0.60
2019-03-05T00:40:00.980Z,0.73
2019-03-05T00:42:49.820Z,0.93
2019-03-05T00:45:51.888Z,0.60
2019-03-05T00:48:43.692Z,0.70
2019-03-05T00:51:42.893Z,0.70
2019-03-05T00:54:34.931Z,0.53
2019-03-05T00:57:31.069Z,0.63
2019-03-05T01:00:20.075Z,0.80
2019-03-05T01:03:18.349Z,0.50
2019-03-05T01:06:07.333Z,0.83
2019-03-05T01:09:02.029Z,0.80
2019-03-05T01:11:49.517Z,0.90
2019-03-05T01:14:43.889Z,0.50
2019-03-05T01:17:31.225Z,0.80
2019-03-05T01:20:25.269Z,0.90
2019-03-05T01:23:21.268Z,0.90
2019-03-05T01:26:23.074Z,0.67
2019-03-05T01:29:10.340Z,0.80
2019-03-05T01:32:06.279Z,0.60
2019-03-05T01:35:07.654Z,0.93
2019-03-05T01:38:01.856Z,0.80
2019-03-05T01:40:49.859Z,0.50
2019-03-05T01:43:44.825Z,0.70
2019-03-05T01:46:32.071Z,0.90
2019-03-05T01:49:26.409Z,1.03
2019-03-05T01:52:13.677Z,0.80
2019-03-05T01:55:08.171Z,0.57
2019-03-05T01:57:55.787Z,0.57
2019-03-05T02:00:50.583Z,0.90
2019-03-05T02:03:37.903Z,0.73
2019-03-05T02:06:32.289Z,0.80
2019-03-05T02:09:25.941Z,0.80
2019-03-05T02:12:20.689Z,0.80
2019-03-05T02:15:07.637Z,0.73
2019-03-05T02:18:01.314Z,0.50
2019-03-05T02:20:49.219Z,0.70
2019-03-05T02:23:58.723Z,0.60
2019-03-05T02:26:50.234Z,0.77
2019-03-05T02:29:45.815Z,0.80
2019-03-05T02:32:34.453Z,1.00
2019-03-05T02:35:37.791Z,0.87
2019-03-05T02:38:29.336Z,0.57
2019-03-05T02:41:25.399Z,0.80
2019-03-05T02:44:23.025Z,0.90
2019-03-05T02:47:19.094Z,0.70
2019-03-05T02:50:07.984Z,1.30
2019-03-05T02:53:03.792Z,1.07
2019-03-05T02:56:09.065Z,0.77
2019-03-05T02:59:03.141Z,0.90
2019-03-05T03:01:51.898Z,1.17
2019-03-05T03:04:46.909Z,0.50
2019-03-05T03:07:34.452Z,0.77
2019-03-05T03:10:30.664Z,0.70
2019-03-05T03:13:18.019Z,0.70
2019-03-05T03:16:12.703Z,0.70
2019-03-05T03:18:59.887Z,0.63
2019-03-05T03:21:53.830Z,0.70
2019-03-05T03:24:48.179Z,0.80
2019-03-05T03:27:48.605Z,0.80
2019-03-05T03:30:35.640Z,0.90
2019-03-05T03:33:29.459Z,0.80
2019-03-05T03:36:23.270Z,0.77
2019-03-05T03:39:17.882Z,0.50
2019-03-05T03:42:05.080Z,0.77
2019-03-05T03:44:59.649Z,0.70
2019-03-05T03:47:47.253Z,0.63
2019-03-05T03:50:42.975Z,0.67
2019-03-05T03:53:30.436Z,0.60
2019-03-05T03:56:24.117Z,0.60
2019-03-05T03:59:13.419Z,0.80
2019-03-05T04:02:07.937Z,0.70
2019-03-05T04:04:54.855Z,0.53
2019-03-05T04:07:49.284Z,0.60
2019-03-05T04:10:36.472Z,0.70
2019-03-05T04:13:31.012Z,1.00
2019-03-05T04:16:17.900Z,0.60
2019-03-05T04:22:02.852Z,0.77
2019-03-05T04:24:56.936Z,0.70
2019-03-05T04:27:50.709Z,0.57
2019-03-05T04:30:45.196Z,0.70
2019-03-05T04:33:33.872Z,0.70
2019-03-05T04:36:27.424Z,0.70
2019-03-05T04:39:21.123Z,0.93
2019-03-05T04:42:15.192Z,0.40
2019-03-05T04:45:04.058Z,0.90
2019-03-05T04:47:58.208Z,0.90
2019-03-05T04:50:49.415Z,0.60
2019-03-05T04:53:43.733Z,0.63
2019-03-05T04:56:31.140Z,0.67
2019-03-05T04:59:25.486Z,0.80
2019-03-05T05:02:12.754Z,0.60
2019-03-05T05:05:07.010Z,0.50
2019-03-05T05:07:54.108Z,0.60
2019-03-05T05:10:49.835Z,0.77
2019-03-05T05:13:36.914Z,0.80
2019-03-05T05:16:31.002Z,0.67
2019-03-05T05:19:18.276Z,0.50
2019-03-05T05:22:12.903Z,0.40
2019-03-05T05:25:00.355Z,0.70
2019-03-05T05:28:02.232Z,0.53
2019-03-05T05:30:49.628Z,0.33
2019-03-05T05:33:43.610Z,0.70
2019-03-05T05:36:30.652Z,0.70
2019-03-05T05:39:35.370Z,0.57
2019-03-05T05:42:29.372Z,0.70
2019-03-05T05:45:25.287Z,0.57
2019-03-05T05:48:12.690Z,0.57
2019-03-05T05:51:06.150Z,0.63
2019-03-05T05:53:53.229Z,0.80
2019-03-05T05:56:50.832Z,0.63
2019-03-05T05:59:38.011Z,0.50
2019-03-05T06:02:33.178Z,0.60
2019-03-05T06:05:20.646Z,0.50
2019-03-05T06:08:15.211Z,0.60
2019-03-05T06:11:04.371Z,0.53
2019-03-05T06:16:48.110Z,0.53
2019-03-05T06:19:42.513Z,0.43
2019-03-05T06:22:29.838Z,0.50
2019-03-05T06:25:23.999Z,0.30
2019-03-05T06:28:18.209Z,0.40
2019-03-05T06:31:19.173Z,0.50
2019-03-05T06:34:06.320Z,0.40
2019-03-05T06:37:01.290Z,0.40
2019-03-05T06:39:51.332Z,0.50
2019-03-05T06:42:48.685Z,0.43
2019-03-05T06:45:42.525Z,0.50
2019-03-05T06:48:36.769Z,0.30
2019-03-05T06:51:24.120Z,0.40
2019-03-05T06:54:18.078Z,0.40
2019-03-05T06:57:05.687Z,0.43
2019-03-05T06:59:59.998Z,0.23
2019-03-05T07:02:47.225Z,0.30
2019-03-05T07:05:59.712Z,0.40
2019-03-05T07:08:48.597Z,0.40
2019-03-05T07:11:44.234Z,0.40
2019-03-05T07:14:49.778Z,0.47
2019-03-05T07:17:48.982Z,0.57
2019-03-05T07:20:54.594Z,0.30
2019-03-05T07:23:57.003Z,0.50
2019-03-05T07:26:43.877Z,0.30
2019-03-05T07:29:44.683Z,0.27
2019-03-05T07:32:31.779Z,0.43
2019-03-05T07:35:30.167Z,0.40
2019-03-05T07:38:17.385Z,0.30
2019-03-05T07:41:11.266Z,0.20
2019-03-05T07:43:58.827Z,0.20
2019-03-05T07:47:00.886Z,0.20
2019-03-05T07:49:48.053Z,0.30
2019-03-05T07:52:42.795Z,0.30
2019-03-05T07:55:29.867Z,0.20
2019-03-05T07:58:27.464Z,0.30
2019-03-05T08:01:22.226Z,0.20
2019-03-05T08:04:11.121Z,0.20
2019-03-05T08:07:00.105Z,0.30
2019-03-05T08:09:54.476Z,0.30
2019-03-05T08:12:46.369Z,0.30
2019-03-05T08:15:46.957Z,0.10
2019-03-05T08:18:34.245Z,0.40
2019-03-05T08:21:29.671Z,0.33
2019-03-05T08:24:17.107Z,0.30
2019-03-05T08:27:10.886Z,0.37
2019-03-05T08:30:13.836Z,0.13
2019-03-05T08:33:08.942Z,0.20
2019-03-05T08:35:56.075Z,0.33
2019-03-05T08:38:49.683Z,0.23
2019-03-05T08:41:36.829Z,0.10
2019-03-05T08:44:30.681Z,0.20
2019-03-05T08:47:25.399Z,0.20
2019-03-05T08:50:20.146Z,0.30
2019-03-05T08:53:07.599Z,0.20
2019-03-05T08:56:01.779Z,0.37
2019-03-05T08:58:50.824Z,0.17
2019-03-05T09:01:45.571Z,0.20
2019-03-05T09:04:33.123Z,0.47
2019-03-05T09:07:27.861Z,0.40
2019-03-05T09:10:16.058Z,0.20
2019-03-05T09:13:10.177Z,0.20
2019-03-05T09:15:58.982Z,0.40
2019-03-05T09:21:42.321Z,0.40
2019-03-05T09:24:36.657Z,0.20
2019-03-05T09:27:24.011Z,0.20
2019-03-05T09:30:26.868Z,0.30
2019-03-05T09:33:14.323Z,0.30
2019-03-05T09:36:09.317Z,0.40
2019-03-05T09:38:56.799Z,0.23
2019-03-05T09:41:50.429Z,0.30
2019-03-05T09:44:41.203Z,0.30
2019-03-05T09:47:34.931Z,0.40
2019-03-05T09:50:32.011Z,0.20
2019-03-05T09:53:25.247Z,0.40
2019-03-05T09:56:12.286Z,0.27
2019-03-05T09:59:06.153Z,0.10
2019-03-05T10:01:54.600Z,0.30
2019-03-05T10:04:50.221Z,0.40
2019-03-05T10:07:37.690Z,0.40
2019-03-05T10:10:33.364Z,0.27
2019-03-05T10:13:20.504Z,0.20
2019-03-05T10:16:14.835Z,0.20
2019-03-05T10:19:02.107Z,0.30
2019-03-05T10:21:56.766Z,0.37
2019-03-05T10:24:43.697Z,0.37
2019-03-05T10:27:40.150Z,0.30
2019-03-05T10:30:41.949Z,0.50
2019-03-05T10:33:43.392Z,0.30
2019-03-05T10:36:30.717Z,0.20
2019-03-05T10:39:30.966Z,0.50
2019-03-05T10:42:18.022Z,0.30
2019-03-05T10:45:16.626Z,0.20
2019-03-05T10:48:04.306Z,0.37
2019-03-05T10:51:07.219Z,0.20
2019-03-05T10:53:54.816Z,0.50
2019-03-05T10:56:48.220Z,0.30
2019-03-05T10:59:35.338Z,0.10
2019-03-05T11:02:29.724Z,0.30
2019-03-05T11:05:17.360Z,0.20
2019-03-05T11:08:11.102Z,0.20
2019-03-05T11:10:58.725Z,0.30
2019-03-05T11:13:52.936Z,0.40
2019-03-05T11:16:40.359Z,0.40
2019-03-05T11:19:34.810Z,0.30
2019-03-05T11:22:22.406Z,0.27
2019-03-05T11:25:18.677Z,0.30
2019-03-05T11:28:06.088Z,0.27
2019-03-05T11:31:00.208Z,0.50
2019-03-05T11:33:54.787Z,0.30
2019-03-05T11:36:48.626Z,0.20
2019-03-05T11:39:36.171Z,0.33
2019-03-05T11:42:30.086Z,0.80
2019-03-05T11:45:18.483Z,0.50
2019-03-05T11:48:13.067Z,0.30
2019-03-05T11:51:00.618Z,0.37
2019-03-05T11:54:02.292Z,0.20
2019-03-05T11:56:49.800Z,0.20
2019-03-05T11:59:44.083Z,0.20
2019-03-05T12:02:31.505Z,0.50
2019-03-05T12:05:25.870Z,0.57
2019-03-05T12:08:12.860Z,0.37
2019-03-05T12:11:07.181Z,0.30
2019-03-05T12:13:54.608Z,0.63
2019-03-05T12:16:48.747Z,0.40
2019-03-05T12:19:35.966Z,0.10
2019-03-05T12:22:32.513Z,0.40
2019-03-05T12:25:20.422Z,0.50
2019-03-05T12:28:15.054Z,0.40
2019-03-05T12:31:02.062Z,0.40
2019-03-05T12:34:05.210Z,0.50
2019-03-05T12:36:59.080Z,0.23
2019-03-05T12:39:53.740Z,0.30
2019-03-05T12:42:41.042Z,0.20
2019-03-05T12:45:35.010Z,0.37
2019-03-05T12:48:22.543Z,0.30
2019-03-05T12:51:24.087Z,0.10
2019-03-05T12:54:18.689Z,0.20
2019-03-05T12:57:12.479Z,0.30
2019-03-05T12:59:59.786Z,0.10
2019-03-05T13:02:53.990Z,0.20
2019-03-05T13:05:41.510Z,0.20
2019-03-05T13:08:36.305Z,0.30
2019-03-05T13:11:23.635Z,0.30
2019-03-05T13:14:17.228Z,0.20
2019-03-05T13:17:04.627Z,0.30
2019-03-05T13:20:01.671Z,0.20
2019-03-05T13:22:49.040Z,0.30
2019-03-05T13:25:43.381Z,0.40
2019-03-05T13:28:30.717Z,0.20
2019-03-05T13:31:25.446Z,0.50
2019-03-05T13:34:19.528Z,0.20
2019-03-05T13:37:24.821Z,0.10
2019-03-05T13:40:11.426Z,0.20
2019-03-05T13:43:06.441Z,0.10
2019-03-05T13:45:54.039Z,0.10
2019-03-05T13:49:07.549Z,0.23
2019-03-05T13:51:59.709Z,0.20
2019-03-05T13:55:05.053Z,0.60
2019-03-05T13:58:09.228Z,0.30
2019-03-05T14:01:03.955Z,0.20
2019-03-05T14:03:53.184Z,0.50
2019-03-05T14:06:49.227Z,0.20
2019-03-05T14:09:36.442Z,0.23
2019-03-05T14:15:20.473Z,0.20
2019-03-05T14:18:14.194Z,0.40
2019-03-05T14:21:03.976Z,0.40
2019-03-05T14:23:58.265Z,0.20
2019-03-05T14:26:45.305Z,0.13
2019-03-05T14:29:39.409Z,0.40
2019-03-05T14:32:26.471Z,0.07
2019-03-05T14:35:27.883Z,0.20
2019-03-05T14:38:15.951Z,0.30
2019-03-05T14:41:11.959Z,0.30
2019-03-05T14:43:59.447Z,0.23
2019-03-05T14:46:58.539Z,0.30
2019-03-05T14:49:48.673Z,0.20
2019-03-05T14:52:47.930Z,0.23
2019-03-05T14:55:35.176Z,0.30
2019-03-05T14:58:36.886Z,0.50
2019-03-05T15:01:24.115Z,0.20
2019-03-05T15:04:18.489Z,0.50
2019-03-05T15:07:05.831Z,0.70
2019-03-05T15:10:02.099Z,0.50
2019-03-05T15:12:49.556Z,0.30
2019-03-05T15:15:43.944Z,0.17
2019-03-05T15:18:31.192Z,0.60
2019-03-05T15:21:25.583Z,0.53
2019-03-05T15:24:12.643Z,0.67
2019-03-05T15:27:07.197Z,0.30
2019-03-05T15:29:54.501Z,0.40
2019-03-05T15:32:49.230Z,0.43
2019-03-05T15:35:43.144Z,0.20
2019-03-05T15:38:44.058Z,0.63
2019-03-05T15:41:31.769Z,0.50
2019-03-05T15:44:26.031Z,0.50
2019-03-05T15:47:13.483Z,0.40
2019-03-05T15:50:07.934Z,0.30
2019-03-05T15:52:55.040Z,0.10
2019-03-05T15:55:56.040Z,0.70
2019-03-05T15:58:43.302Z,0.23
2019-03-05T16:01:45.260Z,0.40
2019-03-05T16:04:36.010Z,0.17
2019-03-05T16:07:30.536Z,0.30
2019-03-05T16:10:19.213Z,0.40
2019-03-05T16:13:19.327Z,0.27
2019-03-05T16:16:04.751Z,0.30
2019-03-05T16:18:59.095Z,0.10
2019-03-05T16:21:46.347Z,0.27
2019-03-05T16:24:40.368Z,0.33
2019-03-05T16:27:30.035Z,0.30
2019-03-05T16:30:42.360Z,0.47
2019-03-05T16:33:32.385Z,0.20
2019-03-05T16:36:37.607Z,0.20
2019-03-05T16:39:50.406Z,0.20
2019-03-05T16:43:02.184Z,0.33
2019-03-05T16:45:59.742Z,0.47
2019-03-05T16:49:09.471Z,0.43
2019-03-05T16:52:13.772Z,0.60
2019-03-05T16:55:11.709Z,0.40
2019-03-05T16:58:16.481Z,0.30
2019-03-05T17:01:21.716Z,0.17
2019-03-05T17:04:17.384Z,0.30
2019-03-05T17:07:15.148Z,0.43
2019-03-05T17:10:09.529Z,0.30
2019-03-05T17:13:03.631Z,0.40
2019-03-05T17:15:50.893Z,0.40
2019-03-05T17:18:45.379Z,0.40
2019-03-05T17:21:32.521Z,0.30
2019-03-05T17:24:26.939Z,0.40
2019-03-05T17:27:14.545Z,0.20
2019-03-05T17:30:10.305Z,0.20
2019-03-05T17:32:57.851Z,0.10
2019-03-05T17:35:58.715Z,0.10
2019-03-05T17:38:53.038Z,0.20
2019-03-05T17:41:49.668Z,0.30
2019-03-05T17:44:41.990Z,0.30
2019-03-05T17:47:37.017Z,0.20
2019-03-05T17:50:25.807Z,0.30
2019-03-05T17:53:22.175Z,0.20
2019-03-05T17:56:14.063Z,0.20
2019-03-05T17:59:08.569Z,0.20
2019-03-05T18:01:59.041Z,0.40
2019-03-05T18:05:00.433Z,0.30
2019-03-05T18:07:47.763Z,0.27
2019-03-05T18:10:42.187Z,0.10
2019-03-05T18:13:29.502Z,0.20
2019-03-05T18:16:24.000Z,0.30
2019-03-05T18:19:11.461Z,0.30
2019-03-05T18:22:09.033Z,0.20
2019-03-05T18:24:56.403Z,0.13
2019-03-05T18:27:50.018Z,0.40
2019-03-05T18:30:38.549Z,0.40
2019-03-05T18:33:33.187Z,0.10
2019-03-05T18:36:30.286Z,0.33
2019-03-05T18:39:25.003Z,0.30
2019-03-05T18:42:16.538Z,0.30
2019-03-05T18:45:13.603Z,0.40
2019-03-05T18:48:01.033Z,0.20
2019-03-05T18:50:54.399Z,0.30
2019-03-05T18:53:41.725Z,0.33
2019-03-05T18:56:36.306Z,0.20
2019-03-05T18:59:23.502Z,0.30
2019-03-05T19:02:17.437Z,0.53
2019-03-05T19:05:06.417Z,0.43
2019-03-05T19:08:07.520Z,0.37
2019-03-05T19:10:56.818Z,0.37
2019-03-05T19:13:51.580Z,0.37
2019-03-05T19:16:38.864Z,0.40
2019-03-05T19:19:33.229Z,0.50
2019-03-05T19:22:21.970Z,0.53
2019-03-05T19:25:21.040Z,0.43
2019-03-05T19:28:08.348Z,0.40
2019-03-05T19:31:02.673Z,0.60
2019-03-05T19:33:50.117Z,0.60
2019-03-05T19:36:45.947Z,0.40
2019-03-05T19:39:39.948Z,0.67
2019-03-05T19:42:33.813Z,0.50
2019-03-05T19:45:21.536Z,0.60
2019-03-05T19:48:16.293Z,0.27
2019-03-05T19:51:03.928Z,0.63
2019-03-05T19:54:01.448Z,0.30
2019-03-05T19:56:48.718Z,0.40
2019-03-05T19:59:45.609Z,0.50
2019-03-05T20:02:32.612Z,0.60
2019-03-05T20:05:30.254Z,0.53
2019-03-05T20:08:20.128Z,0.50
2019-03-05T20:11:22.827Z,0.60
2019-03-05T20:14:10.526Z,0.40
2019-03-05T20:17:04.611Z,0.80
2019-03-05T20:19:51.552Z,0.50
2019-03-05T20:22:47.324Z,0.80
2019-03-05T20:25:33.817Z,0.70
2019-03-05T20:28:28.047Z,0.60
2019-03-05T20:31:15.072Z,0.50
2019-03-05T20:34:09.016Z,0.70
2019-03-05T20:36:56.361Z,0.63
2019-03-05T20:39:57.238Z,0.50
2019-03-05T20:42:44.550Z,0.60
2019-03-05T20:45:40.514Z,0.63
2019-03-05T20:48:27.874Z,0.70
2019-03-05T20:51:22.413Z,0.63
2019-03-05T20:54:09.821Z,0.47
2019-03-05T20:57:05.071Z,1.00
2019-03-05T20:59:52.235Z,0.80
2019-03-05T21:02:45.904Z,0.70
2019-03-05T21:06:07.211Z,0.47
2019-03-05T21:09:01.816Z,0.80
2019-03-05T21:11:55.911Z,0.50
2019-03-05T21:14:50.231Z,0.60
2019-03-05T21:17:37.596Z,0.47
2019-03-05T21:20:34.714Z,0.50
2019-03-05T21:23:25.896Z,0.70
2019-03-05T21:26:20.032Z,0.60
2019-03-05T21:29:07.286Z,0.57
2019-03-05T21:32:01.321Z,1.00
2019-03-05T21:34:48.714Z,0.70
2019-03-05T21:37:43.411Z,0.50
2019-03-05T21:40:39.852Z,0.60
2019-03-05T21:43:40.946Z,0.63
2019-03-05T21:46:35.288Z,0.60
2019-03-05T21:49:33.124Z,0.80
2019-03-05T21:52:20.206Z,0.90
2019-03-05T21:55:16.176Z,0.93
2019-03-05T21:58:03.730Z,0.77
2019-03-05T22:00:57.816Z,0.70
2019-03-05T22:03:45.179Z,0.53
2019-03-05T22:06:39.646Z,0.70
2019-03-05T22:09:26.876Z,0.83
2019-03-05T22:12:20.538Z,0.70
2019-03-05T22:15:15.542Z,0.70
2019-03-05T22:18:09.374Z,0.80
2019-03-05T22:20:56.799Z,0.70
2019-03-05T22:23:51.251Z,0.63
2019-03-05T22:26:38.899Z,0.80
2019-03-05T22:29:36.105Z,0.70
2019-03-05T22:32:23.246Z,0.90
2019-03-05T22:35:17.276Z,0.87
2019-03-05T22:38:04.713Z,0.93
2019-03-05T22:40:59.422Z,0.80
2019-03-05T22:43:53.024Z,0.40
2019-03-05T22:46:53.466Z,0.60
2019-03-05T22:49:40.469Z,0.60
2019-03-05T22:52:37.299Z,0.90
2019-03-05T22:55:24.657Z,0.83
2019-03-05T22:58:18.584Z,1.10
2019-03-05T23:01:13.215Z,0.70
2019-03-05T23:04:07.470Z,0.73
2019-03-05T23:06:54.735Z,0.70
2019-03-05T23:09:49.717Z,0.60
2019-03-05T23:12:36.791Z,0.80
2019-03-05T23:15:33.549Z,0.90
2019-03-05T23:18:28.445Z,0.80
2019-03-05T23:21:22.589Z,1.00
2019-03-05T23:24:10.103Z,0.60
2019-03-05T23:27:06.038Z,0.70
2019-03-05T23:29:53.266Z,0.80
2019-03-05T23:32:54.631Z,1.10
2019-03-05T23:35:41.845Z,0.90
2019-03-05T23:38:36.467Z,0.90
2019-03-05T23:41:23.911Z,0.60
2019-03-05T23:47:21.832Z,0.90
2019-03-05T23:50:17.047Z,0.97
2019-03-05T23:53:04.222Z,0.60
2019-03-05T23:55:58.253Z,0.70
2019-03-05T23:58:45.793Z,0.90
